createdAt,value
2017-01-07T00:00:06.271Z,0
2017-01-07T00:00:47.622Z,0
2017-01-07T00:03:18.473Z,0
2017-01-07T00:03:59.315Z,0
2017-01-07T00:04:40.154Z,0
2017-01-07T00:05:21.174Z,0
2017-01-07T00:06:01.810Z,0
2017-01-07T00:08:21.892Z,0
2017-01-07T00:09:03.003Z,0
2017-01-07T00:09:44.506Z,0
2017-01-07T00:10:26.074Z,0
2017-01-07T00:11:07.376Z,0
2017-01-07T00:11:49.048Z,0
2017-01-07T00:12:30.496Z,0
2017-01-07T00:13:12.137Z,0
2017-01-07T00:13:53.775Z,0
2017-01-07T00:14:35.260Z,0
2017-01-07T00:15:16.801Z,0
2017-01-07T00:17:47.076Z,0
2017-01-07T00:18:28.132Z,0
2017-01-07T00:20:43.312Z,0
2017-01-07T00:21:24.573Z,0
2017-01-07T00:22:06.084Z,0
2017-01-07T00:22:47.979Z,0
2017-01-07T00:28:57.042Z,0
2017-01-07T00:29:38.592Z,0
2017-01-07T00:30:20.043Z,0
2017-01-07T00:32:20.246Z,0
2017-01-07T00:34:51.320Z,0
2017-01-07T00:35:32.963Z,0
2017-01-07T00:36:14.673Z,0
2017-01-07T00:36:56.317Z,0
2017-01-07T00:38:56.264Z,0
2017-01-07T00:39:38.022Z,0
2017-01-07T00:40:19.825Z,0
2017-01-07T00:46:24.633Z,0
2017-01-07T00:50:34.647Z,0
2017-01-07T00:51:16.366Z,0
2017-01-07T00:51:58.096Z,0
2017-01-07T00:52:39.754Z,0
2017-01-07T00:53:21.557Z,0
2017-01-07T00:54:03.382Z,0
2017-01-07T00:54:45.169Z,0
2017-01-07T00:55:26.922Z,0
2017-01-07T00:56:08.770Z,0
2017-01-07T00:56:50.526Z,0
2017-01-07T00:57:32.149Z,0
2017-01-07T00:58:13.930Z,0
2017-01-07T00:58:55.628Z,0
2017-01-07T00:59:37.229Z,0
2017-01-07T01:00:19.026Z,0
2017-01-07T01:01:00.625Z,0
2017-01-07T01:01:41.899Z,0
2017-01-07T01:03:57.301Z,0
2017-01-07T01:04:38.741Z,0
2017-01-07T01:05:20.443Z,0
2017-01-07T01:06:02.283Z,0
2017-01-07T01:08:02.434Z,0
2017-01-07T01:08:44.247Z,0
2017-01-07T01:09:25.250Z,0
2017-01-07T01:10:06.691Z,0
2017-01-07T01:10:47.969Z,0
2017-01-07T01:11:29.581Z,0
2017-01-07T01:12:11.311Z,0
2017-01-07T01:16:21.515Z,0
2017-01-07T01:17:03.341Z,0
2017-01-07T01:17:44.874Z,0
2017-01-07T01:18:26.609Z,0
2017-01-07T01:19:08.408Z,0
2017-01-07T01:19:50.260Z,0
2017-01-07T01:20:32.055Z,0
2017-01-07T01:21:13.963Z,0
2017-01-07T01:21:55.771Z,0
2017-01-07T01:22:37.181Z,0
2017-01-07T01:23:18.685Z,0
2017-01-07T01:24:00.447Z,0
2017-01-07T01:24:41.911Z,0
2017-01-07T01:25:23.451Z,0
2017-01-07T01:26:04.799Z,0
2017-01-07T01:26:46.130Z,0
2017-01-07T01:29:01.612Z,0
2017-01-07T01:29:43.482Z,0
2017-01-07T01:30:25.384Z,0
2017-01-07T01:32:40.765Z,0
2017-01-07T01:33:22.651Z,0
2017-01-07T01:34:04.531Z,0
2017-01-07T01:38:14.246Z,0
2017-01-07T01:38:55.417Z,0
2017-01-07T01:39:37.048Z,0
2017-01-07T01:41:57.853Z,0
2017-01-07T01:44:13.070Z,0
2017-01-07T01:44:54.526Z,0
2017-01-07T01:45:36.382Z,0
2017-01-07T01:46:18.133Z,0
2017-01-07T01:46:59.812Z,0
2017-01-07T01:48:59.347Z,0
2017-01-07T01:49:41.073Z,0
2017-01-07T01:50:22.611Z,0
2017-01-07T01:51:04.149Z,0
2017-01-07T01:51:45.950Z,0
2017-01-07T01:52:27.591Z,0
2017-01-07T01:53:09.245Z,0
2017-01-07T01:53:50.531Z,0
2017-01-07T01:54:32.309Z,0
2017-01-07T01:58:31.911Z,0
2017-01-07T01:59:13.669Z,0
2017-01-07T01:59:55.323Z,0
2017-01-07T02:00:37.139Z,0
2017-01-07T02:01:18.585Z,0
2017-01-07T02:02:00.483Z,0
2017-01-07T02:02:42.182Z,0
2017-01-07T02:03:23.637Z,0
2017-01-07T02:04:05.413Z,0
2017-01-07T02:04:47.255Z,0
2017-01-07T02:05:28.884Z,0
2017-01-07T02:06:10.535Z,0
2017-01-07T02:06:52.087Z,0
2017-01-07T02:07:33.485Z,0
2017-01-07T02:08:15.253Z,0
2017-01-07T02:08:56.664Z,0
2017-01-07T02:09:38.291Z,0
2017-01-07T02:10:20.013Z,0
2017-01-07T02:11:01.843Z,0
2017-01-07T02:11:43.499Z,0
2017-01-07T02:12:25.321Z,0
2017-01-07T02:13:07.142Z,0
2017-01-07T02:13:48.844Z,0
2017-01-07T02:14:30.521Z,0
2017-01-07T02:15:11.441Z,0
2017-01-07T02:15:51.954Z,0
2017-01-07T02:16:32.483Z,0
2017-01-07T02:17:13.009Z,0
2017-01-07T02:17:53.588Z,0
2017-01-07T02:18:34.068Z,0
2017-01-07T02:19:14.594Z,0
2017-01-07T02:19:55.125Z,0
2017-01-07T02:20:35.652Z,0
2017-01-07T02:21:16.177Z,0
2017-01-07T02:21:56.706Z,0
2017-01-07T02:22:37.250Z,0
2017-01-07T02:23:17.780Z,0
2017-01-07T02:23:58.309Z,0
2017-01-07T02:24:38.831Z,0
2017-01-07T02:25:19.357Z,0
2017-01-07T02:25:59.885Z,0
2017-01-07T02:26:40.412Z,0
2017-01-07T02:27:20.941Z,0
2017-01-07T02:28:01.463Z,0
2017-01-07T02:28:41.991Z,0
2017-01-07T02:29:22.514Z,0
2017-01-07T02:30:03.045Z,0
2017-01-07T02:30:43.563Z,0
2017-01-07T02:31:24.091Z,0
2017-01-07T02:32:04.614Z,0
2017-01-07T02:32:45.144Z,0
2017-01-07T02:33:25.673Z,0
2017-01-07T02:34:06.204Z,0
2017-01-07T02:34:46.733Z,0
2017-01-07T02:35:27.260Z,0
2017-01-07T02:36:07.789Z,0
2017-01-07T02:36:48.316Z,0
2017-01-07T02:37:28.844Z,0
2017-01-07T02:38:09.355Z,0
2017-01-07T02:38:49.883Z,0
2017-01-07T02:39:30.412Z,0
2017-01-07T02:40:10.943Z,0
2017-01-07T02:40:51.467Z,0
2017-01-07T02:41:31.987Z,0
2017-01-07T02:42:12.515Z,0
2017-01-07T02:42:53.053Z,0
2017-01-07T02:43:33.585Z,0
2017-01-07T02:44:14.116Z,0
2017-01-07T02:44:54.643Z,0
2017-01-07T02:45:35.170Z,0
2017-01-07T02:46:15.705Z,0
2017-01-07T02:46:56.234Z,0
2017-01-07T02:47:36.763Z,0
2017-01-07T02:48:17.287Z,0
2017-01-07T02:48:57.815Z,0
2017-01-07T02:49:38.344Z,0
2017-01-07T02:50:18.872Z,0
2017-01-07T02:50:59.392Z,0
2017-01-07T02:51:39.919Z,0
2017-01-07T02:52:20.458Z,0
2017-01-07T02:53:00.990Z,0
2017-01-07T02:53:41.516Z,0
2017-01-07T02:54:22.041Z,0
2017-01-07T02:55:02.572Z,0
2017-01-07T02:55:43.109Z,0
2017-01-07T02:56:23.641Z,0
2017-01-07T02:57:04.170Z,0
2017-01-07T02:57:44.694Z,0
2017-01-07T02:58:25.213Z,0
2017-01-07T02:59:05.741Z,0
2017-01-07T02:59:46.265Z,0
2017-01-07T03:00:26.794Z,0
2017-01-07T03:01:07.328Z,0
2017-01-07T03:01:47.849Z,0
2017-01-07T03:02:28.371Z,0
2017-01-07T03:03:08.897Z,0
2017-01-07T03:03:49.425Z,0
2017-01-07T03:04:29.953Z,0
2017-01-07T03:05:10.480Z,0
2017-01-07T03:05:51.006Z,0
2017-01-07T03:06:31.528Z,0
2017-01-07T03:07:12.056Z,0
2017-01-07T03:07:52.580Z,0
2017-01-07T03:08:33.102Z,0
2017-01-07T03:09:13.632Z,0
2017-01-07T03:09:54.165Z,0
2017-01-07T03:10:34.699Z,0
2017-01-07T03:11:15.227Z,0
2017-01-07T03:11:55.762Z,0
2017-01-07T03:12:36.293Z,0
2017-01-07T03:13:16.820Z,0
2017-01-07T03:13:57.352Z,0
2017-01-07T03:14:37.921Z,0
2017-01-07T03:15:18.454Z,0
2017-01-07T03:15:58.983Z,0
2017-01-07T03:16:39.520Z,0
2017-01-07T03:17:20.037Z,0
2017-01-07T03:18:00.570Z,0
2017-01-07T03:18:41.103Z,0
2017-01-07T03:19:21.629Z,0
2017-01-07T03:20:02.157Z,0
2017-01-07T03:20:42.685Z,0
2017-01-07T03:21:23.209Z,0
2017-01-07T03:22:03.739Z,0
2017-01-07T03:22:44.268Z,0
2017-01-07T03:23:24.796Z,0
2017-01-07T03:24:05.326Z,0
2017-01-07T03:24:45.849Z,0
2017-01-07T03:25:26.369Z,0
2017-01-07T03:26:06.899Z,0
2017-01-07T03:26:47.427Z,0
2017-01-07T03:27:27.952Z,0
2017-01-07T03:28:08.499Z,0
2017-01-07T03:28:49.028Z,0
2017-01-07T03:29:29.548Z,0
2017-01-07T03:30:10.076Z,0
2017-01-07T03:30:50.611Z,0
2017-01-07T03:31:31.141Z,0
2017-01-07T03:32:11.664Z,0
2017-01-07T03:32:52.191Z,0
2017-01-07T03:33:32.721Z,0
2017-01-07T03:34:13.247Z,0
2017-01-07T03:34:53.772Z,0
2017-01-07T03:35:34.292Z,0
2017-01-07T03:36:14.830Z,0
2017-01-07T03:36:55.361Z,0
2017-01-07T03:37:35.889Z,0
2017-01-07T03:38:16.425Z,0
2017-01-07T03:38:56.945Z,0
2017-01-07T03:39:37.482Z,0
2017-01-07T03:40:18.013Z,0
2017-01-07T03:40:58.544Z,0
2017-01-07T03:41:39.079Z,0
2017-01-07T03:42:19.598Z,0
2017-01-07T03:43:00.134Z,0
2017-01-07T03:43:40.666Z,0
2017-01-07T03:44:21.199Z,0
2017-01-07T03:45:01.732Z,0
2017-01-07T03:45:42.248Z,0
2017-01-07T03:46:22.778Z,0
2017-01-07T03:47:03.303Z,0
2017-01-07T03:47:43.831Z,0
2017-01-07T03:48:24.362Z,0
2017-01-07T03:49:04.893Z,0
2017-01-07T03:49:45.419Z,0
2017-01-07T03:50:25.951Z,0
2017-01-07T03:51:06.474Z,0
2017-01-07T03:51:47.002Z,0
2017-01-07T03:52:27.531Z,0
2017-01-07T03:53:08.054Z,0
2017-01-07T03:53:48.579Z,0
2017-01-07T03:54:29.104Z,0
2017-01-07T03:55:09.637Z,0
2017-01-07T03:55:50.167Z,0
2017-01-07T03:56:30.686Z,0
2017-01-07T03:57:11.209Z,0
2017-01-07T03:57:51.742Z,0
2017-01-07T03:58:32.276Z,0
2017-01-07T03:59:12.808Z,0
2017-01-07T03:59:53.330Z,0
2017-01-07T04:00:33.857Z,0
2017-01-07T04:01:14.401Z,0
2017-01-07T04:01:54.927Z,0
2017-01-07T04:02:35.441Z,0
2017-01-07T04:03:15.961Z,0
2017-01-07T04:03:56.497Z,0
2017-01-07T04:04:37.021Z,0
2017-01-07T04:05:17.543Z,0
2017-01-07T04:05:58.063Z,0
2017-01-07T04:06:38.605Z,0
2017-01-07T04:07:19.131Z,0
2017-01-07T04:07:59.659Z,0
2017-01-07T04:08:40.184Z,0
2017-01-07T04:09:20.710Z,0
2017-01-07T04:10:01.242Z,0
2017-01-07T04:10:41.765Z,0
2017-01-07T04:11:22.296Z,0
2017-01-07T04:12:02.825Z,0
2017-01-07T04:12:43.354Z,0
2017-01-07T04:13:23.883Z,0
2017-01-07T04:14:04.408Z,0
2017-01-07T04:14:44.934Z,0
2017-01-07T04:15:25.465Z,0
2017-01-07T04:16:06.072Z,0
2017-01-07T04:16:46.592Z,0
2017-01-07T04:17:27.120Z,0
2017-01-07T04:18:07.655Z,0
2017-01-07T04:18:48.190Z,0
2017-01-07T04:19:28.721Z,0
2017-01-07T04:20:09.252Z,0
2017-01-07T04:20:49.780Z,0
2017-01-07T04:21:30.307Z,0
2017-01-07T04:22:10.841Z,0
2017-01-07T04:22:51.369Z,0
2017-01-07T04:23:31.894Z,0
2017-01-07T04:24:12.423Z,0
2017-01-07T04:24:52.959Z,0
2017-01-07T04:25:33.494Z,0
2017-01-07T04:26:14.018Z,0
2017-01-07T04:26:54.555Z,0
2017-01-07T04:27:35.075Z,0
2017-01-07T04:28:15.611Z,0
2017-01-07T04:28:56.144Z,0
2017-01-07T04:29:36.673Z,0
2017-01-07T04:30:17.198Z,0
2017-01-07T04:30:57.729Z,0
2017-01-07T04:31:38.264Z,0
2017-01-07T04:32:18.799Z,0
2017-01-07T04:32:59.329Z,0
2017-01-07T04:33:39.885Z,0
2017-01-07T04:34:20.411Z,0
2017-01-07T04:35:00.942Z,0
2017-01-07T04:35:41.472Z,0
2017-01-07T04:36:22.000Z,0
2017-01-07T04:37:02.527Z,0
2017-01-07T04:37:43.052Z,0
2017-01-07T04:38:23.582Z,0
2017-01-07T04:39:04.108Z,0
2017-01-07T04:39:44.628Z,0
2017-01-07T04:40:25.154Z,0
2017-01-07T04:41:05.684Z,0
2017-01-07T04:41:46.214Z,0
2017-01-07T04:42:26.745Z,0
2017-01-07T04:43:07.268Z,0
2017-01-07T04:43:47.794Z,0
2017-01-07T04:44:28.324Z,0
2017-01-07T04:45:08.851Z,0
2017-01-07T04:45:49.387Z,0
2017-01-07T04:46:29.908Z,0
2017-01-07T04:47:10.437Z,0
2017-01-07T04:47:50.974Z,0
2017-01-07T04:48:31.506Z,0
2017-01-07T04:49:12.040Z,0
2017-01-07T04:49:52.570Z,0
2017-01-07T04:50:33.098Z,0
2017-01-07T04:51:13.634Z,0
2017-01-07T04:51:54.161Z,0
2017-01-07T04:52:34.692Z,0
2017-01-07T04:53:15.214Z,0
2017-01-07T04:53:55.743Z,0
2017-01-07T04:54:36.278Z,0
2017-01-07T04:55:16.811Z,0
2017-01-07T04:55:57.342Z,0
2017-01-07T04:56:37.874Z,0
2017-01-07T04:57:18.404Z,0
2017-01-07T04:57:58.934Z,0
2017-01-07T04:58:39.465Z,0
2017-01-07T04:59:19.982Z,0
2017-01-07T05:00:00.508Z,0
2017-01-07T05:00:41.049Z,0
2017-01-07T05:01:21.606Z,0
2017-01-07T05:02:02.161Z,0
2017-01-07T05:02:42.693Z,0
2017-01-07T05:03:23.229Z,0
2017-01-07T05:04:03.785Z,0
2017-01-07T05:04:44.319Z,0
2017-01-07T05:05:24.852Z,0
2017-01-07T05:06:05.380Z,0
2017-01-07T05:06:45.903Z,0
2017-01-07T05:07:26.439Z,0
2017-01-07T05:08:06.963Z,0
2017-01-07T05:08:47.501Z,0
2017-01-07T05:09:28.022Z,0
2017-01-07T05:10:08.552Z,0
2017-01-07T05:10:49.078Z,0
2017-01-07T05:11:29.606Z,0
2017-01-07T05:12:10.141Z,0
2017-01-07T05:12:50.667Z,0
2017-01-07T05:13:31.197Z,0
2017-01-07T05:14:11.726Z,0
2017-01-07T05:14:52.258Z,0
2017-01-07T05:15:32.799Z,0
2017-01-07T05:16:13.307Z,0
2017-01-07T05:16:53.843Z,0
2017-01-07T05:17:34.375Z,0
2017-01-07T05:18:14.907Z,0
2017-01-07T05:18:55.441Z,0
2017-01-07T05:19:35.973Z,0
2017-01-07T05:20:16.504Z,0
2017-01-07T05:20:57.032Z,0
2017-01-07T05:21:37.563Z,0
2017-01-07T05:22:18.091Z,0
2017-01-07T05:22:58.625Z,0
2017-01-07T05:23:39.156Z,0
2017-01-07T05:24:19.686Z,0
2017-01-07T05:25:00.215Z,0
2017-01-07T05:25:40.745Z,0
2017-01-07T05:26:21.274Z,0
2017-01-07T05:27:01.805Z,0
2017-01-07T05:27:42.335Z,0
2017-01-07T05:28:22.859Z,0
2017-01-07T05:29:03.384Z,0
2017-01-07T05:29:43.912Z,0
2017-01-07T05:30:24.439Z,0
2017-01-07T05:31:04.968Z,0
2017-01-07T05:31:45.504Z,0
2017-01-07T05:32:26.033Z,0
2017-01-07T05:33:06.575Z,0
2017-01-07T05:33:47.106Z,0
2017-01-07T05:34:27.638Z,0
2017-01-07T05:35:08.168Z,0
2017-01-07T05:35:48.698Z,0
2017-01-07T05:36:29.220Z,0
2017-01-07T05:37:09.756Z,0
2017-01-07T05:37:50.283Z,0
2017-01-07T05:38:30.862Z,0
2017-01-07T05:39:11.393Z,0
2017-01-07T05:39:51.917Z,0
2017-01-07T05:40:32.459Z,0
2017-01-07T05:41:12.982Z,0
2017-01-07T05:41:53.511Z,0
2017-01-07T05:42:34.043Z,0
2017-01-07T05:43:14.572Z,0
2017-01-07T05:43:55.127Z,0
2017-01-07T05:44:35.659Z,0
2017-01-07T05:45:16.192Z,0
2017-01-07T05:45:56.714Z,0
2017-01-07T05:46:37.232Z,0
2017-01-07T05:47:17.763Z,0
2017-01-07T05:47:58.284Z,0
2017-01-07T05:48:38.814Z,0
2017-01-07T05:49:19.345Z,0
2017-01-07T05:49:59.870Z,0
2017-01-07T05:50:40.400Z,0
2017-01-07T05:51:20.932Z,0
2017-01-07T05:52:01.464Z,0
2017-01-07T05:52:41.994Z,0
2017-01-07T05:53:22.526Z,0
2017-01-07T05:54:03.052Z,0
2017-01-07T05:54:43.581Z,0
2017-01-07T05:55:24.116Z,0
2017-01-07T05:56:04.648Z,0
2017-01-07T05:56:45.182Z,0
2017-01-07T05:57:25.714Z,0
2017-01-07T05:58:06.245Z,0
2017-01-07T05:58:46.774Z,0
2017-01-07T05:59:27.302Z,0
2017-01-07T06:00:07.839Z,0
2017-01-07T06:00:48.352Z,0
2017-01-07T06:01:28.878Z,0
2017-01-07T06:02:09.406Z,0
2017-01-07T06:02:49.936Z,0
2017-01-07T06:03:30.458Z,0
2017-01-07T06:04:10.986Z,0
2017-01-07T06:04:51.522Z,0
2017-01-07T06:05:32.056Z,0
2017-01-07T06:06:12.585Z,0
2017-01-07T06:06:53.120Z,0
2017-01-07T06:07:33.648Z,0
2017-01-07T06:08:14.175Z,0
2017-01-07T06:08:54.709Z,0
2017-01-07T06:09:35.239Z,0
2017-01-07T06:10:15.769Z,0
2017-01-07T06:10:56.298Z,0
2017-01-07T06:11:36.827Z,0
2017-01-07T06:12:17.356Z,0
2017-01-07T06:12:57.889Z,0
2017-01-07T06:13:38.423Z,0
2017-01-07T06:14:18.951Z,0
2017-01-07T06:14:59.478Z,0
2017-01-07T06:15:40.013Z,0
2017-01-07T06:16:20.538Z,0
2017-01-07T06:17:01.063Z,0
2017-01-07T06:17:41.582Z,0
2017-01-07T06:18:22.114Z,0
2017-01-07T06:19:02.666Z,0
2017-01-07T06:19:43.206Z,0
2017-01-07T06:20:23.744Z,0
2017-01-07T06:21:04.267Z,0
2017-01-07T06:21:44.791Z,0
2017-01-07T06:22:25.334Z,0
2017-01-07T06:23:05.865Z,0
2017-01-07T06:23:46.396Z,0
2017-01-07T06:24:26.933Z,0
2017-01-07T06:25:07.449Z,0
2017-01-07T06:25:47.986Z,0
2017-01-07T06:26:28.585Z,0
2017-01-07T06:27:09.109Z,0
2017-01-07T06:27:49.637Z,0
2017-01-07T06:28:30.172Z,0
2017-01-07T06:29:10.701Z,0
2017-01-07T06:29:51.223Z,0
2017-01-07T06:30:31.757Z,0
2017-01-07T06:31:12.288Z,0
2017-01-07T06:31:52.823Z,0
2017-01-07T06:32:33.352Z,0
2017-01-07T06:33:13.877Z,0
2017-01-07T06:33:54.402Z,0
2017-01-07T06:34:34.933Z,0
2017-01-07T06:35:15.457Z,0
2017-01-07T06:35:55.985Z,0
2017-01-07T06:36:36.515Z,0
2017-01-07T06:37:17.043Z,0
2017-01-07T06:37:57.574Z,0
2017-01-07T06:38:38.106Z,0
2017-01-07T06:39:18.631Z,0
2017-01-07T06:39:59.158Z,0
2017-01-07T06:40:39.695Z,0
2017-01-07T06:41:20.228Z,0
2017-01-07T06:42:00.760Z,0
2017-01-07T06:42:41.291Z,0
2017-01-07T06:43:21.821Z,0
2017-01-07T06:44:02.349Z,0
2017-01-07T06:44:42.879Z,0
2017-01-07T06:45:23.407Z,0
2017-01-07T06:46:03.934Z,0
2017-01-07T06:46:44.458Z,0
2017-01-07T06:47:24.990Z,0
2017-01-07T06:48:05.512Z,0
2017-01-07T06:48:46.043Z,0
2017-01-07T06:49:26.570Z,0
2017-01-07T06:50:07.100Z,0
2017-01-07T06:50:47.628Z,0
2017-01-07T06:51:28.157Z,0
2017-01-07T06:52:08.692Z,0
2017-01-07T06:52:49.220Z,0
2017-01-07T06:53:29.750Z,0
2017-01-07T06:54:10.285Z,0
2017-01-07T06:54:50.817Z,0
2017-01-07T06:55:31.347Z,0
2017-01-07T06:56:11.874Z,0
2017-01-07T06:56:52.404Z,0
2017-01-07T06:57:32.934Z,0
2017-01-07T06:58:13.467Z,0
2017-01-07T06:58:54.001Z,0
2017-01-07T06:59:34.529Z,0
2017-01-07T07:00:15.056Z,0
2017-01-07T07:00:55.573Z,0
2017-01-07T07:01:36.108Z,0
2017-01-07T07:02:16.649Z,0
2017-01-07T07:02:57.186Z,0
2017-01-07T07:03:37.714Z,4
2017-01-07T07:04:18.248Z,4
2017-01-07T07:04:58.786Z,4
2017-01-07T07:05:39.319Z,4
2017-01-07T07:06:19.850Z,4
2017-01-07T07:07:00.375Z,0
2017-01-07T07:07:40.908Z,0
2017-01-07T07:08:21.441Z,4
2017-01-07T07:09:01.972Z,4
2017-01-07T07:09:42.503Z,4
2017-01-07T07:10:23.026Z,4
2017-01-07T07:11:03.562Z,4
2017-01-07T07:11:44.093Z,4
2017-01-07T07:12:24.623Z,4
2017-01-07T07:13:05.155Z,8
2017-01-07T07:13:45.682Z,8
2017-01-07T07:14:26.226Z,8
2017-01-07T07:15:06.762Z,8
2017-01-07T07:15:47.292Z,12
2017-01-07T07:16:27.826Z,8
2017-01-07T07:17:08.356Z,8
2017-01-07T07:17:48.887Z,12
2017-01-07T07:18:29.420Z,12
2017-01-07T07:19:09.950Z,16
2017-01-07T07:19:50.479Z,16
2017-01-07T07:20:31.010Z,20
2017-01-07T07:21:11.540Z,20
2017-01-07T07:21:52.068Z,24
2017-01-07T07:22:32.598Z,24
2017-01-07T07:23:13.127Z,24
2017-01-07T07:23:53.661Z,28
2017-01-07T07:24:34.320Z,28
2017-01-07T07:25:14.937Z,32
2017-01-07T07:25:55.473Z,32
2017-01-07T07:26:36.026Z,40
2017-01-07T07:27:16.540Z,40
2017-01-07T07:27:57.070Z,40
2017-01-07T07:28:37.603Z,40
2017-01-07T07:29:18.123Z,44
2017-01-07T07:29:58.657Z,48
2017-01-07T07:30:39.191Z,48
2017-01-07T07:31:19.720Z,48
2017-01-07T07:32:00.260Z,48
2017-01-07T07:32:40.778Z,44
2017-01-07T07:33:21.445Z,48
2017-01-07T07:34:01.983Z,48
2017-01-07T07:34:42.513Z,48
2017-01-07T07:35:23.045Z,48
2017-01-07T07:36:03.570Z,52
2017-01-07T07:36:44.385Z,56
2017-01-07T07:37:25.082Z,56
2017-01-07T07:38:05.610Z,56
2017-01-07T07:38:46.144Z,60
2017-01-07T07:39:26.682Z,64
2017-01-07T07:40:07.307Z,68
2017-01-07T07:40:47.827Z,72
2017-01-07T07:41:28.359Z,68
2017-01-07T07:42:08.884Z,72
2017-01-07T07:42:49.462Z,76
2017-01-07T07:43:29.983Z,80
2017-01-07T07:44:10.516Z,84
2017-01-07T07:44:51.040Z,88
2017-01-07T07:45:31.571Z,96
2017-01-07T07:46:12.102Z,96
2017-01-07T07:46:52.636Z,96
2017-01-07T07:47:33.167Z,100
2017-01-07T07:48:13.697Z,104
2017-01-07T07:48:54.229Z,108
2017-01-07T07:49:34.759Z,108
2017-01-07T07:50:15.291Z,112
2017-01-07T07:50:55.820Z,116
2017-01-07T07:51:36.346Z,116
2017-01-07T07:52:16.872Z,116
2017-01-07T07:52:57.406Z,120
2017-01-07T07:53:37.933Z,120
2017-01-07T07:54:18.472Z,128
2017-01-07T07:54:59.004Z,128
2017-01-07T07:55:39.531Z,132
2017-01-07T07:56:20.053Z,132
2017-01-07T07:57:00.588Z,132
2017-01-07T07:57:41.109Z,128
2017-01-07T07:58:21.642Z,128
2017-01-07T07:59:02.173Z,124
2017-01-07T07:59:42.709Z,124
2017-01-07T08:00:23.244Z,128
2017-01-07T08:01:03.775Z,132
2017-01-07T08:01:44.322Z,136
2017-01-07T08:02:24.842Z,140
2017-01-07T08:03:05.542Z,144
2017-01-07T08:03:46.265Z,144
2017-01-07T08:04:26.917Z,152
2017-01-07T08:05:07.592Z,152
2017-01-07T08:05:48.267Z,160
2017-01-07T08:06:28.948Z,160
2017-01-07T08:07:09.646Z,168
2017-01-07T08:07:50.162Z,172
2017-01-07T08:08:30.685Z,180
2017-01-07T08:09:11.227Z,188
2017-01-07T08:09:52.080Z,196
2017-01-07T08:10:32.775Z,208
2017-01-07T08:11:13.458Z,220
2017-01-07T08:11:54.044Z,232
2017-01-07T08:12:34.590Z,240
2017-01-07T08:13:15.295Z,256
2017-01-07T08:13:55.983Z,264
2017-01-07T08:14:36.698Z,276
2017-01-07T08:15:17.224Z,288
2017-01-07T08:15:58.009Z,300
2017-01-07T08:16:38.538Z,308
2017-01-07T08:17:19.232Z,316
2017-01-07T08:17:59.781Z,320
2017-01-07T08:18:40.349Z,324
2017-01-07T08:19:21.789Z,328
2017-01-07T08:20:02.318Z,336
2017-01-07T08:20:44.309Z,348
2017-01-07T08:21:25.728Z,364
2017-01-07T08:22:06.256Z,372
2017-01-07T08:22:46.779Z,384
2017-01-07T08:23:27.313Z,396
2017-01-07T08:24:10.589Z,404
2017-01-07T08:24:52.577Z,404
2017-01-07T08:25:33.939Z,404
2017-01-07T08:26:14.451Z,408
2017-01-07T08:26:56.531Z,408
2017-01-07T08:27:38.148Z,412
2017-01-07T08:28:18.691Z,412
2017-01-07T08:29:00.837Z,412
2017-01-07T08:29:41.368Z,416
2017-01-07T08:30:23.659Z,412
2017-01-07T08:31:04.909Z,404
2017-01-07T08:31:45.435Z,404
2017-01-07T08:32:27.333Z,408
2017-01-07T08:33:09.200Z,404
2017-01-07T08:33:49.731Z,408
2017-01-07T08:34:32.689Z,412
2017-01-07T08:35:13.939Z,420
2017-01-07T08:35:54.974Z,428
2017-01-07T08:36:35.759Z,432
2017-01-07T08:37:17.727Z,452
2017-01-07T08:37:58.396Z,468
2017-01-07T08:38:39.384Z,492
2017-01-07T08:39:19.913Z,512
2017-01-07T08:40:00.443Z,532
2017-01-07T08:40:41.505Z,544
2017-01-07T08:41:22.395Z,556
2017-01-07T08:42:03.269Z,568
2017-01-07T08:42:43.961Z,592
2017-01-07T08:43:24.529Z,620
2017-01-07T08:44:05.409Z,652
2017-01-07T08:44:45.931Z,684
2017-01-07T08:45:26.615Z,716
2017-01-07T08:46:07.153Z,740
2017-01-07T08:46:47.693Z,756
2017-01-07T08:47:28.204Z,764
2017-01-07T08:48:08.735Z,768
2017-01-07T08:48:49.268Z,772
2017-01-07T08:49:29.809Z,796
2017-01-07T08:50:10.353Z,804
2017-01-07T08:50:51.016Z,796
2017-01-07T08:51:31.693Z,744
2017-01-07T08:52:12.357Z,688
2017-01-07T08:52:53.048Z,632
2017-01-07T08:53:33.678Z,596
2017-01-07T08:54:14.226Z,584
2017-01-07T08:54:54.927Z,584
2017-01-07T08:55:35.584Z,584
2017-01-07T08:56:16.280Z,592
2017-01-07T08:56:56.811Z,608
2017-01-07T08:57:37.342Z,624
2017-01-07T08:58:17.861Z,632
2017-01-07T08:58:58.576Z,628
2017-01-07T08:59:39.223Z,620
2017-01-07T09:00:19.766Z,604
2017-01-07T09:01:00.478Z,596
2017-01-07T09:01:41.167Z,596
2017-01-07T09:02:21.698Z,596
2017-01-07T09:03:02.364Z,604
2017-01-07T09:03:42.897Z,608
2017-01-07T09:04:24.601Z,608
2017-01-07T09:05:05.599Z,612
2017-01-07T09:05:46.124Z,624
2017-01-07T09:06:26.736Z,648
2017-01-07T09:07:07.265Z,676
2017-01-07T09:07:47.800Z,720
2017-01-07T09:08:28.327Z,760
2017-01-07T09:09:08.857Z,788
2017-01-07T09:09:49.381Z,792
2017-01-07T09:10:34.142Z,772
2017-01-07T09:11:25.141Z,740
2017-01-07T09:12:12.529Z,732
2017-01-07T09:12:53.151Z,748
2017-01-07T09:13:33.830Z,772
2017-01-07T09:14:14.359Z,812
2017-01-07T09:14:54.973Z,868
2017-01-07T09:15:35.764Z,924
2017-01-07T09:16:16.412Z,980
2017-01-07T09:16:57.098Z,1028
2017-01-07T09:17:37.813Z,1056
2017-01-07T09:18:18.342Z,1060
2017-01-07T09:18:59.076Z,1068
2017-01-07T09:19:39.730Z,1080
2017-01-07T09:20:20.361Z,1108
2017-01-07T09:21:00.890Z,1136
2017-01-07T09:21:41.410Z,1148
2017-01-07T09:22:22.091Z,1152
2017-01-07T09:23:02.651Z,1164
2017-01-07T09:23:43.185Z,1176
2017-01-07T09:24:23.719Z,1172
2017-01-07T09:25:04.520Z,1160
2017-01-07T09:25:45.057Z,1132
2017-01-07T09:26:25.722Z,1096
2017-01-07T09:27:06.262Z,1048
2017-01-07T09:27:46.797Z,1016
2017-01-07T09:28:27.494Z,1004
2017-01-07T09:29:08.026Z,1016
2017-01-07T09:29:48.564Z,1048
2017-01-07T09:30:29.229Z,1068
2017-01-07T09:31:09.781Z,1088
2017-01-07T09:31:50.316Z,1108
2017-01-07T09:32:30.846Z,1156
2017-01-07T09:33:11.376Z,1212
2017-01-07T09:33:51.921Z,1268
2017-01-07T09:34:32.438Z,1348
2017-01-07T09:35:13.003Z,1436
2017-01-07T09:35:53.543Z,1468
2017-01-07T09:36:34.073Z,1464
2017-01-07T09:37:14.744Z,1388
2017-01-07T09:37:55.272Z,1280
2017-01-07T09:38:35.833Z,1180
2017-01-07T09:39:16.375Z,1092
2017-01-07T09:39:56.993Z,1020
2017-01-07T09:40:37.541Z,960
2017-01-07T09:43:17.216Z,820
2017-01-07T09:43:57.872Z,824
2017-01-07T09:44:38.403Z,840
2017-01-07T09:45:18.951Z,872
2017-01-07T09:45:59.488Z,900
2017-01-07T09:46:40.009Z,936
2017-01-07T09:47:20.535Z,972
2017-01-07T09:48:01.065Z,996
2017-01-07T09:48:41.750Z,1012
2017-01-07T09:49:22.281Z,1052
2017-01-07T09:50:02.829Z,1116
2017-01-07T09:50:43.481Z,1204
2017-01-07T09:51:24.028Z,1296
2017-01-07T09:52:04.564Z,1392
2017-01-07T09:52:45.122Z,1484
2017-01-07T09:53:25.656Z,1556
2017-01-07T09:54:06.197Z,1628
2017-01-07T09:54:46.732Z,1724
2017-01-07T09:55:27.435Z,1848
2017-01-07T09:56:07.968Z,1972
2017-01-07T09:56:48.489Z,2040
2017-01-07T09:57:29.019Z,2020
2017-01-07T09:58:09.555Z,1952
2017-01-07T09:58:50.081Z,1884
2017-01-07T09:59:30.894Z,1812
2017-01-07T10:00:11.708Z,1752
2017-01-07T10:00:52.335Z,1688
2017-01-07T10:01:32.866Z,1636
2017-01-07T10:02:13.393Z,1600
2017-01-07T10:02:54.065Z,1564
2017-01-07T10:03:34.705Z,1512
2017-01-07T10:04:15.441Z,1440
2017-01-07T10:04:55.974Z,1388
2017-01-07T10:05:36.510Z,1348
2017-01-07T10:06:17.036Z,1316
2017-01-07T10:06:57.774Z,1280
2017-01-07T10:07:38.420Z,1244
2017-01-07T10:08:18.947Z,1188
2017-01-07T10:08:59.630Z,1116
2017-01-07T10:09:40.215Z,1060
2017-01-07T10:10:20.902Z,1024
2017-01-07T10:11:01.489Z,992
2017-01-07T10:11:42.157Z,968
2017-01-07T10:12:22.795Z,960
2017-01-07T10:13:03.326Z,952
2017-01-07T10:13:43.860Z,940
2017-01-07T10:14:24.548Z,944
2017-01-07T10:15:05.231Z,976
2017-01-07T10:15:45.753Z,1040
2017-01-07T10:16:26.384Z,1124
2017-01-07T10:17:07.059Z,1200
2017-01-07T10:17:47.578Z,1256
2017-01-07T10:18:28.116Z,1320
2017-01-07T10:19:08.647Z,1392
2017-01-07T10:19:49.178Z,1432
2017-01-07T10:20:29.815Z,1424
2017-01-07T10:21:10.366Z,1368
2017-01-07T10:21:50.885Z,1268
2017-01-07T10:22:31.454Z,1172
2017-01-07T10:23:12.020Z,1080
2017-01-07T10:23:52.554Z,1012
2017-01-07T10:24:33.086Z,968
2017-01-07T10:25:13.623Z,948
2017-01-07T10:25:54.162Z,940
2017-01-07T10:26:34.690Z,928
2017-01-07T10:27:15.212Z,904
2017-01-07T10:27:55.748Z,864
2017-01-07T10:28:36.278Z,816
2017-01-07T10:29:16.805Z,772
2017-01-07T10:29:57.343Z,740
2017-01-07T10:30:38.040Z,728
2017-01-07T10:31:18.602Z,744
2017-01-07T10:31:59.128Z,788
2017-01-07T10:32:39.693Z,840
2017-01-07T10:33:20.219Z,896
2017-01-07T10:34:00.743Z,928
2017-01-07T10:34:41.271Z,912
2017-01-07T10:35:21.803Z,872